Accueil
METAR-TAF:

METAR-TAF

Aéroports :

Rocky Mount-Wilson Regional Airport

Rocky Mount, Caroline du Nord, États-Unis

latitude: 35-51-18N, longitude: 077-53-35W, altitude: 49 m

Observation

Le bulletin a été fait il y a 38 minutes, à 15:53 UTC
Vent 9 kt de ouest
Température 13°C
Humidité 72%
Pression 1013 hPa
Visibilité: 16.1 km
Ciel clair

METAR: KRWI 191553Z AUTO 27009KT 10SM CLR 13/08 A2991 RMK AO2 SLP128 T01280083

Heure: 11:31 (16:31 UTC)

Prévision

Le bulletin a été fait il y a 1 heure et 15 minutes, à 15:16 UTC
Prévision valable du 19 à 15 UTC au 20 à 12 UTC
Vent 10 kt de ouest
Visibilité: 10 km
Nuages fragmentés à une hauteur de 25000 ft
A partir de 19 à 1900 UTC
Vent 10 kt de ouest/nord-ouest avec des rafales jusqu'à 16 kt
Visibilité: 10 km
Nuages épars à une hauteur de 25000 ft

TAF: KRWI 191516Z 1915/2012 27010KT P6SM BKN250 FM191900 30010G16KT P6SM SCT250

Observations et prévisions météorologiques de plus de 4000 aéroports (messages METAR et TAF).

Les stations disponibles sont représentées par des disques jaunes et rouges sur la carte.

Passer la souris dessus pour voir le nom de la station.

Cliquer dessus pour voir les observations et prévisions météorologiques.

Pour changer de carte: cliquez sur les boutons verts avec une croix noire pour zoomer, sur le bouton vert avec un tiret pour effectuer un zoom arrière, ou sur les flèches vertes pour les cartes adjacentes.


METAR-TAF: